createdAt,value
2022-10-13T00:01:23.003Z,33.53
2022-10-13T00:03:52.753Z,34.33
2022-10-13T00:06:25.395Z,26.60
2022-10-13T00:08:54.254Z,30.73
2022-10-13T00:11:24.652Z,31.03
2022-10-13T00:13:56.022Z,30.73
2022-10-13T00:16:24.971Z,30.73
2022-10-13T00:18:53.662Z,24.60
2022-10-13T00:21:26.728Z,24.33
2022-10-13T00:23:55.923Z,28.87
2022-10-13T00:26:26.607Z,28.50
2022-10-13T00:28:56.041Z,28.33
2022-10-13T00:31:26.288Z,27.73
2022-10-13T00:33:55.043Z,28.63
2022-10-13T00:36:25.791Z,25.70
2022-10-13T00:38:54.677Z,27.97
2022-10-13T00:41:23.400Z,24.97
2022-10-13T00:43:58.637Z,27.80
2022-10-13T00:46:28.983Z,27.00
2022-10-13T00:48:59.372Z,24.90
2022-10-13T00:51:32.823Z,23.97
2022-10-13T00:54:02.968Z,25.10
2022-10-13T00:56:31.858Z,26.00
2022-10-13T00:59:02.837Z,21.20
2022-10-13T01:01:31.443Z,23.90
2022-10-13T01:04:00.046Z,23.47
2022-10-13T01:06:29.953Z,22.37
2022-10-13T01:08:58.399Z,20.00
2022-10-13T01:11:51.261Z,25.33
2022-10-13T01:14:26.576Z,25.90
2022-10-13T01:17:03.815Z,24.57
2022-10-13T01:20:06.033Z,24.30
2022-10-13T01:22:47.138Z,24.43
2022-10-13T01:25:34.511Z,28.23
2022-10-13T01:28:19.456Z,23.33
2022-10-13T01:30:53.536Z,25.40
2022-10-13T01:33:31.732Z,28.40
2022-10-13T01:36:12.750Z,27.13
2022-10-13T01:38:47.940Z,22.00
2022-10-13T01:41:23.608Z,24.47
2022-10-13T01:43:57.781Z,25.67
2022-10-13T01:46:31.412Z,23.20
2022-10-13T01:49:03.807Z,26.50
2022-10-13T01:51:34.427Z,24.70
2022-10-13T01:54:03.111Z,21.20
2022-10-13T01:56:31.614Z,26.63
2022-10-13T01:59:03.054Z,31.20
2022-10-13T02:01:49.445Z,22.43
2022-10-13T02:04:28.927Z,24.97
2022-10-13T02:07:05.081Z,24.13
2022-10-13T02:09:43.070Z,24.93
2022-10-13T02:12:18.510Z,28.30
2022-10-13T02:14:49.654Z,24.63
2022-10-13T02:17:20.523Z,25.77
2022-10-13T02:19:49.079Z,22.57
2022-10-13T02:22:19.406Z,25.93
2022-10-13T02:24:48.410Z,21.90
2022-10-13T02:27:17.631Z,27.80
2022-10-13T02:29:53.904Z,25.97
2022-10-13T02:32:24.516Z,21.23
2022-10-13T02:34:53.492Z,17.57
2022-10-13T02:37:22.389Z,19.23
2022-10-13T02:39:50.881Z,23.07
2022-10-13T02:42:19.986Z,21.83
2022-10-13T02:44:48.571Z,23.80
2022-10-13T02:47:17.092Z,20.53
2022-10-13T02:49:47.113Z,27.70
2022-10-13T02:52:15.919Z,21.97
2022-10-13T02:54:44.420Z,26.77
2022-10-13T02:57:12.978Z,25.87
2022-10-13T02:59:41.465Z,21.43
2022-10-13T03:02:10.456Z,23.20
2022-10-13T03:04:39.140Z,23.17
2022-10-13T03:07:09.148Z,31.47
2022-10-13T03:09:37.664Z,39.90
2022-10-13T03:12:06.334Z,53.37
2022-10-13T03:14:34.843Z,48.83
2022-10-13T03:17:03.832Z,43.40
2022-10-13T03:19:33.535Z,40.70
2022-10-13T03:22:02.121Z,38.07
2022-10-13T03:24:32.569Z,34.37
2022-10-13T03:27:01.166Z,27.83
2022-10-13T03:29:30.045Z,29.33
2022-10-13T03:31:58.751Z,32.07
2022-10-13T03:34:27.326Z,25.80
2022-10-13T03:36:56.023Z,30.53
2022-10-13T03:39:25.022Z,25.77
2022-10-13T03:41:54.915Z,26.17
2022-10-13T03:44:23.712Z,31.43
2022-10-13T03:46:52.508Z,26.83
2022-10-13T03:49:21.551Z,29.40
2022-10-13T03:51:50.049Z,27.83
2022-10-13T03:54:19.114Z,25.63
2022-10-13T03:56:47.701Z,31.67
2022-10-13T03:59:18.851Z,25.80
2022-10-13T04:01:47.367Z,25.17
2022-10-13T04:04:16.125Z,28.33
2022-10-13T04:06:44.648Z,33.53
2022-10-13T04:09:13.309Z,33.90
2022-10-13T04:11:41.780Z,30.73
2022-10-13T04:14:10.369Z,26.50
2022-10-13T04:16:41.121Z,29.87
2022-10-13T04:19:10.096Z,28.77
2022-10-13T04:21:38.639Z,29.07
2022-10-13T04:24:07.999Z,28.70
2022-10-13T04:26:37.920Z,29.03
2022-10-13T04:29:07.471Z,30.80
2022-10-13T04:31:37.464Z,28.57
2022-10-13T04:34:08.091Z,33.37
2022-10-13T04:36:36.803Z,34.17
2022-10-13T04:39:05.799Z,36.00
2022-10-13T04:41:34.314Z,31.73
2022-10-13T04:44:02.945Z,41.03
2022-10-13T04:46:31.657Z,27.73
2022-10-13T04:49:00.238Z,31.97
2022-10-13T04:51:30.188Z,31.23
2022-10-13T04:54:01.328Z,40.50
2022-10-13T04:56:30.613Z,26.63
2022-10-13T04:59:00.118Z,35.63
2022-10-13T05:01:29.133Z,28.83
2022-10-13T05:04:01.089Z,29.50
2022-10-13T05:06:33.051Z,34.90
2022-10-13T05:09:02.051Z,29.87
2022-10-13T05:11:31.445Z,27.53
2022-10-13T05:14:00.556Z,41.43
2022-10-13T05:16:30.870Z,46.17
2022-10-13T05:18:59.581Z,45.67
2022-10-13T05:21:30.124Z,34.80
2022-10-13T05:24:02.795Z,32.53
2022-10-13T05:26:32.398Z,29.83
2022-10-13T05:29:02.461Z,31.67
2022-10-13T05:31:32.432Z,31.17
2022-10-13T05:34:01.240Z,33.40
2022-10-13T05:36:32.696Z,30.13
2022-10-13T05:39:05.971Z,31.47
2022-10-13T05:41:34.661Z,32.20
2022-10-13T05:44:06.129Z,35.47
2022-10-13T05:46:34.826Z,33.10
2022-10-13T05:49:03.617Z,30.73
2022-10-13T05:51:36.704Z,34.10
2022-10-13T05:54:11.739Z,33.67
2022-10-13T05:56:46.477Z,35.23
2022-10-13T05:59:23.349Z,33.23
2022-10-13T06:01:55.680Z,41.00
2022-10-13T06:04:27.590Z,39.27
2022-10-13T06:06:56.260Z,37.03
2022-10-13T06:09:26.183Z,41.03
2022-10-13T06:11:54.678Z,42.53
2022-10-13T06:14:23.155Z,39.83
2022-10-13T06:16:51.745Z,47.27
2022-10-13T06:19:20.142Z,53.80
2022-10-13T06:21:49.000Z,42.37
2022-10-13T06:24:17.599Z,46.93
2022-10-13T06:26:48.846Z,48.97
2022-10-13T06:29:19.300Z,44.13
2022-10-13T06:31:49.252Z,48.13
2022-10-13T06:34:19.036Z,44.20
2022-10-13T06:36:47.628Z,54.00
2022-10-13T06:39:16.222Z,49.57
2022-10-13T06:41:44.816Z,51.40
2022-10-13T06:44:15.566Z,51.87
2022-10-13T06:46:44.128Z,51.20
2022-10-13T06:49:14.044Z,47.20
2022-10-13T06:51:42.587Z,50.17
2022-10-13T06:54:11.204Z,51.47
2022-10-13T06:56:39.663Z,47.23
2022-10-13T06:59:08.177Z,47.67
2022-10-13T07:01:41.523Z,46.10
2022-10-13T07:04:10.859Z,54.30
2022-10-13T07:06:39.407Z,53.00
2022-10-13T07:09:09.085Z,43.67
2022-10-13T07:11:37.690Z,55.50
2022-10-13T07:14:06.150Z,47.80
2022-10-13T07:16:34.645Z,45.53
2022-10-13T07:19:04.645Z,47.80
2022-10-13T07:21:33.485Z,46.03
2022-10-13T07:24:03.176Z,41.93
2022-10-13T07:26:34.095Z,51.20
2022-10-13T07:29:02.629Z,38.00
2022-10-13T07:31:31.330Z,42.20
2022-10-13T07:34:01.519Z,47.83
2022-10-13T07:36:40.912Z,38.60
2022-10-13T07:39:10.298Z,33.40
2022-10-13T07:41:39.079Z,37.90
2022-10-13T07:44:14.778Z,47.40
2022-10-13T07:46:43.399Z,38.80
2022-10-13T07:49:15.255Z,39.77
2022-10-13T07:51:46.468Z,39.63
2022-10-13T07:54:14.986Z,33.70
2022-10-13T07:56:43.434Z,36.10
2022-10-13T07:59:12.006Z,36.37
2022-10-13T08:01:41.240Z,33.80
2022-10-13T08:04:09.752Z,34.57
2022-10-13T08:06:38.270Z,35.70
2022-10-13T08:09:08.156Z,33.53
2022-10-13T08:11:36.675Z,35.83
2022-10-13T08:14:05.173Z,34.57
2022-10-13T08:16:34.164Z,33.10
2022-10-13T08:19:02.692Z,34.00
2022-10-13T08:22:01.219Z,29.00
2022-10-13T08:24:22.975Z,27.83
2022-10-13T08:26:51.736Z,33.93
2022-10-13T08:29:22.354Z,31.63
2022-10-13T08:31:52.376Z,32.37
2022-10-13T08:34:21.198Z,29.90
2022-10-13T08:36:53.057Z,29.77
2022-10-13T08:39:24.482Z,25.17
2022-10-13T08:41:53.444Z,28.53
2022-10-13T08:47:25.875Z,27.70
2022-10-13T08:49:59.795Z,29.80
2022-10-13T08:52:31.441Z,28.57
2022-10-13T08:55:01.490Z,26.63
2022-10-13T08:57:30.302Z,25.23
2022-10-13T08:59:58.904Z,27.23
2022-10-13T09:02:32.317Z,25.33
2022-10-13T09:05:04.817Z,24.93
2022-10-13T09:07:38.226Z,20.87
2022-10-13T09:10:10.588Z,25.03
2022-10-13T09:12:39.145Z,23.10
2022-10-13T09:15:10.290Z,20.17
2022-10-13T09:17:40.912Z,23.93
2022-10-13T09:20:20.853Z,20.27
2022-10-13T09:23:03.854Z,21.70
2022-10-13T09:25:42.294Z,22.00
2022-10-13T09:28:17.187Z,21.67
2022-10-13T09:30:48.376Z,22.20
2022-10-13T09:33:25.142Z,23.30
2022-10-13T09:36:12.147Z,20.93
2022-10-13T09:38:41.806Z,17.33
2022-10-13T09:41:21.101Z,19.70
2022-10-13T09:44:06.062Z,18.60
2022-10-13T09:46:37.876Z,21.63
2022-10-13T09:49:09.800Z,19.90
2022-10-13T09:51:41.276Z,18.73
2022-10-13T09:54:28.833Z,19.97
2022-10-13T09:57:03.340Z,17.63
2022-10-13T09:59:34.853Z,15.77
2022-10-13T10:02:18.025Z,15.70
2022-10-13T10:04:49.169Z,17.30
2022-10-13T10:07:23.302Z,16.90
2022-10-13T10:09:56.410Z,18.53
2022-10-13T10:12:31.876Z,16.53
2022-10-13T10:15:00.439Z,16.30
2022-10-13T10:17:38.180Z,15.63
2022-10-13T10:20:26.684Z,15.63
2022-10-13T10:23:03.667Z,16.03
2022-10-13T10:25:39.618Z,13.67
2022-10-13T10:28:24.529Z,15.13
2022-10-13T10:31:01.047Z,14.63
2022-10-13T10:33:37.560Z,15.70
2022-10-13T10:36:17.034Z,13.43
2022-10-13T10:38:50.917Z,17.20
2022-10-13T10:41:40.128Z,17.43
2022-10-13T10:44:14.337Z,17.37
2022-10-13T10:46:48.133Z,12.70
2022-10-13T10:49:21.454Z,18.03
2022-10-13T10:51:50.850Z,13.40
2022-10-13T10:54:32.435Z,10.97
2022-10-13T10:57:08.023Z,10.90
2022-10-13T10:59:51.396Z,10.27
2022-10-13T11:02:42.828Z,12.80
2022-10-13T11:05:11.805Z,11.37
2022-10-13T11:08:01.408Z,11.50
2022-10-13T11:10:30.807Z,13.63
2022-10-13T11:13:18.726Z,10.83
2022-10-13T11:15:48.951Z,12.03
2022-10-13T11:18:54.540Z,14.47
2022-10-13T11:21:23.662Z,12.77
2022-10-13T11:23:52.232Z,10.57
2022-10-13T11:26:32.546Z,10.07
2022-10-13T11:29:01.533Z,13.67
2022-10-13T11:31:50.497Z,9.23
2022-10-13T11:34:30.343Z,13.13
2022-10-13T11:37:02.005Z,12.43
2022-10-13T11:40:00.867Z,16.43
2022-10-13T11:43:08.478Z,12.50
2022-10-13T11:46:06.613Z,12.40
2022-10-13T11:49:11.307Z,11.23
2022-10-13T11:51:57.517Z,12.00
2022-10-13T11:54:33.848Z,10.00
2022-10-13T11:57:02.432Z,10.17
2022-10-13T11:59:33.496Z,12.23
2022-10-13T12:02:13.997Z,10.27
2022-10-13T12:04:47.141Z,11.27
2022-10-13T12:07:17.394Z,10.90
2022-10-13T12:09:52.411Z,12.53
2022-10-13T12:12:23.228Z,10.77
2022-10-13T12:14:55.055Z,9.60
2022-10-13T12:17:25.954Z,8.93
2022-10-13T12:19:58.515Z,11.13
2022-10-13T12:22:27.732Z,10.37
2022-10-13T12:25:00.730Z,12.70
2022-10-13T12:27:32.806Z,12.20
2022-10-13T12:30:01.418Z,7.50
2022-10-13T12:32:31.485Z,11.57
2022-10-13T12:35:19.850Z,11.23
2022-10-13T12:37:49.351Z,11.00
2022-10-13T12:40:19.677Z,9.43
2022-10-13T12:42:49.048Z,13.53
2022-10-13T12:45:19.656Z,10.83
2022-10-13T12:47:50.335Z,11.03
2022-10-13T12:50:38.941Z,9.13
2022-10-13T12:53:14.608Z,7.07
2022-10-13T12:55:55.559Z,8.23
2022-10-13T12:58:28.439Z,8.17
2022-10-13T13:01:07.975Z,11.07
2022-10-13T13:03:39.144Z,7.33
2022-10-13T13:06:34.830Z,10.33
2022-10-13T13:09:28.850Z,7.30
2022-10-13T13:12:28.575Z,11.17
2022-10-13T13:14:58.626Z,8.47
2022-10-13T13:17:56.543Z,7.83
2022-10-13T13:20:22.362Z,10.60
2022-10-13T13:22:52.293Z,8.10
2022-10-13T13:25:20.941Z,7.00
2022-10-13T13:27:49.443Z,7.83
2022-10-13T13:30:19.707Z,7.80
2022-10-13T13:32:48.386Z,6.43
2022-10-13T13:35:16.952Z,5.87
2022-10-13T13:37:49.149Z,7.60
2022-10-13T13:40:21.308Z,6.87
2022-10-13T13:42:49.987Z,7.97
2022-10-13T13:45:20.189Z,8.53
2022-10-13T13:47:50.848Z,7.77
2022-10-13T13:50:23.435Z,10.57
2022-10-13T13:52:52.042Z,9.50
2022-10-13T13:55:23.339Z,7.77
2022-10-13T13:57:53.428Z,10.17
2022-10-13T14:00:22.505Z,9.40
2022-10-13T14:02:51.410Z,12.57
2022-10-13T14:05:19.889Z,9.17
2022-10-13T14:07:48.352Z,8.80
2022-10-13T14:10:17.155Z,9.90
2022-10-13T14:12:47.094Z,8.60
2022-10-13T14:15:15.671Z,10.27
2022-10-13T14:17:44.350Z,9.20
2022-10-13T14:20:13.962Z,9.03
2022-10-13T14:22:42.817Z,9.10
2022-10-13T14:25:12.189Z,6.80
2022-10-13T14:27:41.164Z,6.20
2022-10-13T14:30:12.323Z,6.93
2022-10-13T14:32:41.168Z,6.40
2022-10-13T14:35:10.264Z,8.93
2022-10-13T14:37:39.258Z,9.03
2022-10-13T14:40:08.936Z,8.43
2022-10-13T14:42:39.240Z,7.73
2022-10-13T14:45:09.373Z,7.67
2022-10-13T14:47:39.283Z,7.57
2022-10-13T14:50:08.878Z,7.00
2022-10-13T14:52:39.102Z,8.53
2022-10-13T14:55:08.655Z,8.07
2022-10-13T14:57:37.194Z,7.10
2022-10-13T15:00:06.533Z,6.53
2022-10-13T15:02:35.115Z,7.03
2022-10-13T15:05:06.679Z,9.43
2022-10-13T15:07:41.191Z,8.43
2022-10-13T15:10:10.604Z,9.80
2022-10-13T15:12:39.304Z,10.73
2022-10-13T15:15:08.677Z,11.50
2022-10-13T15:17:38.388Z,13.77
2022-10-13T15:20:09.923Z,18.53
2022-10-13T15:22:38.770Z,12.10
2022-10-13T15:25:10.557Z,64.23
2022-10-13T15:27:42.272Z,14.60
2022-10-13T15:30:12.115Z,11.67
2022-10-13T15:32:41.315Z,12.77
2022-10-13T15:35:16.648Z,11.23
2022-10-13T15:37:48.322Z,8.80
2022-10-13T15:40:17.333Z,11.80
2022-10-13T15:42:46.407Z,6.90
2022-10-13T15:45:16.162Z,11.03
2022-10-13T15:47:48.267Z,14.67
2022-10-13T15:50:19.719Z,15.50
2022-10-13T15:52:49.001Z,19.07
2022-10-13T15:55:18.257Z,21.00
2022-10-13T15:57:47.308Z,16.87
2022-10-13T16:00:17.198Z,14.60
2022-10-13T16:02:46.577Z,15.90
2022-10-13T16:05:20.061Z,28.10
2022-10-13T16:07:51.987Z,17.23
2022-10-13T16:10:22.992Z,17.70
2022-10-13T16:12:53.206Z,14.93
2022-10-13T16:15:23.752Z,14.57
2022-10-13T16:17:53.661Z,15.03
2022-10-13T16:20:23.467Z,17.33
2022-10-13T16:22:54.977Z,16.80
2022-10-13T16:25:23.969Z,21.00
2022-10-13T16:27:52.536Z,16.17
2022-10-13T16:30:22.442Z,16.40
2022-10-13T16:32:51.345Z,16.70
2022-10-13T16:35:19.929Z,15.67
2022-10-13T16:37:49.004Z,19.07
2022-10-13T16:40:19.373Z,21.47
2022-10-13T16:42:48.228Z,20.80
2022-10-13T16:45:17.170Z,22.00
2022-10-13T16:47:51.150Z,21.60
2022-10-13T16:50:19.761Z,26.33
2022-10-13T16:52:48.354Z,30.00
2022-10-13T16:55:17.179Z,30.10
2022-10-13T16:57:48.218Z,39.37
2022-10-13T17:00:16.867Z,40.33
2022-10-13T17:02:45.352Z,38.77
2022-10-13T17:05:14.108Z,56.57
2022-10-13T17:07:42.913Z,77.70
2022-10-13T17:10:12.136Z,92.87
2022-10-13T17:12:40.669Z,153.07
2022-10-13T17:15:11.881Z,213.67
2022-10-13T17:17:40.357Z,191.17
2022-10-13T17:20:14.743Z,124.90
2022-10-13T17:22:43.576Z,84.40
2022-10-13T17:25:13.716Z,84.93
2022-10-13T17:28:03.436Z,75.97
2022-10-13T17:30:48.149Z,81.07
2022-10-13T17:33:37.279Z,73.37
2022-10-13T17:36:07.529Z,69.73
2022-10-13T17:38:36.407Z,60.80
2022-10-13T17:41:08.290Z,61.50
2022-10-13T17:43:38.978Z,53.97
2022-10-13T17:46:35.647Z,66.27
2022-10-13T17:49:05.557Z,72.77
2022-10-13T17:51:35.543Z,73.77
2022-10-13T17:54:04.135Z,59.63
2022-10-13T17:56:32.831Z,80.67
2022-10-13T17:59:02.166Z,70.03
2022-10-13T18:01:33.426Z,60.97
2022-10-13T18:04:05.384Z,58.97
2022-10-13T18:06:40.210Z,56.27
2022-10-13T18:09:10.494Z,52.23
2022-10-13T18:11:39.757Z,48.30
2022-10-13T18:14:09.167Z,42.97
2022-10-13T18:16:39.274Z,46.50
2022-10-13T18:19:08.176Z,41.50
2022-10-13T18:21:36.609Z,46.17
2022-10-13T18:24:05.394Z,41.90
2022-10-13T18:26:36.148Z,45.57
2022-10-13T18:29:06.413Z,47.47
2022-10-13T18:31:36.151Z,48.63
2022-10-13T18:34:08.092Z,34.43
2022-10-13T18:36:38.336Z,31.33
2022-10-13T18:39:09.132Z,26.27
2022-10-13T18:41:39.028Z,32.90
2022-10-13T18:44:20.269Z,25.50
2022-10-13T18:46:51.656Z,25.00
2022-10-13T18:49:24.085Z,26.97
2022-10-13T18:51:52.819Z,25.67
2022-10-13T18:54:21.382Z,28.80
2022-10-13T18:56:50.073Z,26.77
2022-10-13T18:59:18.668Z,24.40
2022-10-13T19:01:47.806Z,24.13
2022-10-13T19:04:17.173Z,26.80
2022-10-13T19:06:48.034Z,31.63
2022-10-13T19:09:20.476Z,26.37
2022-10-13T19:11:49.058Z,29.90
2022-10-13T19:14:20.175Z,29.83
2022-10-13T19:16:48.930Z,43.20
2022-10-13T19:19:17.621Z,41.73
2022-10-13T19:21:47.832Z,38.23
2022-10-13T19:24:16.302Z,33.33
2022-10-13T19:26:44.914Z,34.27
2022-10-13T19:29:16.488Z,29.23
2022-10-13T19:31:45.448Z,33.57
2022-10-13T19:34:14.901Z,39.70
2022-10-13T19:36:45.409Z,38.50
2022-10-13T19:39:17.999Z,44.10
2022-10-13T19:41:47.205Z,34.83
2022-10-13T19:44:16.812Z,35.00
2022-10-13T19:46:47.313Z,34.33
2022-10-13T19:49:19.291Z,32.03
2022-10-13T19:51:49.614Z,30.60
2022-10-13T19:54:21.326Z,34.47
2022-10-13T19:56:51.624Z,27.50
2022-10-13T19:59:21.455Z,26.80
2022-10-13T20:01:50.479Z,28.30
2022-10-13T20:04:22.104Z,31.03
2022-10-13T20:06:52.458Z,27.40
2022-10-13T20:09:23.466Z,23.30
2022-10-13T20:12:02.401Z,26.60
2022-10-13T20:14:32.192Z,26.20
2022-10-13T20:17:01.521Z,30.23
2022-10-13T20:19:30.494Z,30.37
2022-10-13T20:22:01.571Z,32.27
2022-10-13T20:24:32.696Z,30.20
2022-10-13T20:27:01.709Z,28.47
2022-10-13T20:29:30.781Z,28.87
2022-10-13T20:32:02.871Z,29.73
2022-10-13T20:34:32.995Z,26.63
2022-10-13T20:37:01.775Z,27.77
2022-10-13T20:39:31.803Z,31.53
2022-10-13T20:42:00.804Z,30.90
2022-10-13T20:44:29.781Z,28.43
2022-10-13T20:46:58.732Z,27.83
2022-10-13T20:49:28.552Z,28.90
2022-10-13T20:51:57.594Z,28.93
2022-10-13T20:54:27.321Z,31.50
2022-10-13T20:56:58.170Z,25.87
2022-10-13T20:59:26.860Z,29.50
2022-10-13T21:01:55.461Z,25.40
2022-10-13T21:04:24.862Z,26.80
2022-10-13T21:06:54.399Z,27.97
2022-10-13T21:09:23.778Z,29.23
2022-10-13T21:11:52.522Z,27.77
2022-10-13T21:14:23.095Z,24.53
2022-10-13T21:16:52.002Z,28.40
2022-10-13T21:19:21.299Z,26.27
2022-10-13T21:21:50.207Z,24.40
2022-10-13T21:24:18.995Z,32.10
2022-10-13T21:26:47.996Z,31.60
2022-10-13T21:29:16.583Z,27.80
2022-10-13T21:31:46.712Z,28.03
2022-10-13T21:34:15.391Z,25.80
2022-10-13T21:36:45.320Z,27.77
2022-10-13T21:39:13.818Z,34.13
2022-10-13T21:41:43.118Z,32.30
2022-10-13T21:44:14.654Z,28.37
2022-10-13T21:46:43.373Z,27.67
2022-10-13T21:49:13.468Z,30.27
2022-10-13T21:51:42.616Z,29.37
2022-10-13T21:54:13.471Z,28.57
2022-10-13T21:56:42.543Z,29.67
2022-10-13T21:59:13.047Z,29.33
2022-10-13T22:01:41.930Z,27.80
2022-10-13T22:04:14.112Z,30.87
2022-10-13T22:06:43.021Z,31.43
2022-10-13T22:09:12.221Z,29.47
2022-10-13T22:11:41.218Z,31.37
2022-10-13T22:14:10.417Z,30.00
2022-10-13T22:16:41.465Z,30.40
2022-10-13T22:19:10.872Z,27.43
2022-10-13T22:21:42.952Z,31.97
2022-10-13T22:24:13.978Z,37.40
2022-10-13T22:26:43.984Z,29.03
2022-10-13T22:29:16.074Z,30.03
2022-10-13T22:31:44.473Z,30.17
2022-10-13T22:34:14.200Z,31.43
2022-10-13T22:36:45.390Z,30.10
2022-10-13T22:39:14.243Z,27.37
2022-10-13T22:41:42.785Z,31.40
2022-10-13T22:44:11.598Z,25.07
2022-10-13T22:46:41.290Z,31.47
2022-10-13T22:49:10.186Z,31.80
2022-10-13T22:51:39.094Z,31.70
2022-10-13T22:54:09.012Z,27.23
2022-10-13T22:56:37.544Z,34.80
2022-10-13T22:59:08.250Z,51.27
2022-10-13T23:01:37.555Z,48.07
2022-10-13T23:04:07.105Z,49.77
2022-10-13T23:06:36.866Z,48.73
2022-10-13T23:09:07.507Z,47.90
2022-10-13T23:11:37.605Z,46.97
2022-10-13T23:14:06.272Z,47.10
2022-10-13T23:16:35.005Z,43.07
2022-10-13T23:19:03.886Z,43.07
2022-10-13T23:21:32.826Z,35.43
2022-10-13T23:24:03.358Z,36.23
2022-10-13T23:26:33.880Z,38.33
2022-10-13T23:29:04.108Z,37.47
2022-10-13T23:31:32.584Z,42.20
2022-10-13T23:34:01.148Z,43.97
2022-10-13T23:36:31.734Z,38.93
2022-10-13T23:39:02.062Z,40.67
2022-10-13T23:41:30.620Z,35.03
2022-10-13T23:43:59.525Z,39.67
2022-10-13T23:46:30.019Z,34.30
2022-10-13T23:48:58.665Z,36.43
2022-10-13T23:51:27.965Z,41.00
2022-10-13T23:53:56.808Z,38.53
2022-10-13T23:56:25.514Z,37.83
2022-10-13T23:58:54.227Z,35.70
